Chargement...
 

Tiahura


Localisation
La zone de Tiahura se situe sur la côte nord de Moorea, dans l’archipel de la Société en Polynésie française. 
17°28.940'S/149°53.985'W (conversion DM/DMS)
Les thermographes sont répartis le long de la radiale (de 1 à 50 mètres de profondeur, voir schéma de positionnement plus bas).
La sonde live SBE16 est située à -25 mètres et le houlographe est à -35 mètres.


Programmes concernés
Le Polynesia Mana depuis 1998 (punaises orange sur la carte)
Les aires marines du PGEM depuis 2004 avec l'aire marine protégée de Tiahura (puces noires sur la carte)
L'ATPP depuis 1990
La Radiale de Tiahura depuis 1971
Le Recrutement de coraux depuis 2000 (puces jaunes sur la carte)
L'analyse des sels nutritifs depuis 2008

Icon Corail 35px L'analyse du recouvrement corallien est faite selon plusieurs méthodes:
Transect corallien par photo-quadrat et Relevé photographique paysager (Polynesia Mana). Accès aux quadrats et aux
Transect avec PIT dans les programmes AMP et ATPP
Transect avec PIT sur la Radiale de Tiahura. Accès aux données
Substrat artificiel et transect couloir (RC). Accès aux données

Icon Poisson 35px L'analyse de la faune ichtyologique est faite selon quatre méthodes :
le Relevé ichtyologique (Polynesia Mana). Voici l'accès aux données
les transect-couloirs (AMP). Voici l'accès aux données
les comptages (LT Tiahura). Voici l'accès aux données
l'ATPP. Voici l'accès aux données
Icon Vague 80px L'analyse de la houle est réalisée grâce au houlographe SBE26.
Voici l'accès aux données
Icon Temp L'analyse de la température est réalisée grâce au houlographe (voir lien précédent pour les données) et aux 9 thermographes SBE56.
Voici l'accès aux données
Icon Temp Autres paramètres physico-chimiques
Les analyses de la température, la conductivité, la salinité, le pH, l'oxygène et l'oxygène saturé sont réalisées grâce à la Sonde multiparamètres SBE16.
Voici l'accès aux données
Icon Temp L'analyse des sels nutritifs est réalisée grâce à l'AutoanalyseurAA3.
Voici l'accès aux données


Tiahura2

Représentation schématique du positionnement des 9 thermographes sur la radiale de Tiahura à Moorea
F1 : positionnement sur le récif frangeant
C : positionnement dans le chenal
B1 : positionnement sur le récif barrière
P3/8/14/25/35/50 : positionnement sur la pente externe. Les chiffres correspondent à la profondeur.
F2 et B2 ont été abandonnés

Quadrat n°10 sur la pente externe de Moorea Tiahura, en 2015/CRIOBE

Historique Tiahura (Moorea)
Données brutes de suivi des équipements. Les dates affichées correspondent à la date de modification du fichier informatique en laboratoire.

DateDepartureArrivalInstrument
2012-10-25 13:10:48CRIOBE > TiahuraCRIOBE > MooreaSBE43 Oxygen 1609
2012-10-25 13:42:15CRIOBE > TiahuraCRIOBE > MooreaSBE18 pH 0664
2013-02-14 20:41:56CRIOBE > TiahuraCRIOBE > MooreaSBE16plusV2 6158
2013-03-04 14:35:18CRIOBE > TiahuraCRIOBE > MooreaSBE18 pH 0784
2013-03-04 14:36:51CRIOBE > TiahuraCRIOBE > MooreaSBE43 Oxygen 1868
2013-03-20 15:05:26CRIOBE > MooreaCRIOBE > TiahuraSBE43 Oxygen 1611
2013-03-20 15:05:42CRIOBE > MooreaCRIOBE > TiahuraSBE18 pH 0655
2013-03-20 15:06:10CRIOBE > MooreaCRIOBE > TiahuraSBE16plusV2 6158
2013-04-03 09:01:51CRIOBE > MooreaCRIOBE > TiahuraSBE26 houlographe 1280
2013-08-20 14:26:10CRIOBE > TiahuraCRIOBE > MooreaFLNTUS fluo turb 1948
2013-08-20 14:27:15CRIOBE > TiahuraCRIOBE > MooreaSBE16plusV2 6158
2013-08-20 14:27:28CRIOBE > TiahuraCRIOBE > MooreaSBE18 pH 0655
2013-08-20 14:27:49CRIOBE > TiahuraCRIOBE > MooreaSBE43 Oxygen 1611
2013-08-20 14:28:17CRIOBE > TiahuraCRIOBE > MooreaSBE5P Pompe 4997
2013-08-26 15:31:13CRIOBE > MooreaCRIOBE > TiahuraSBE16plusV2 6158
2013-08-26 15:33:01CRIOBE > TiahuraCRIOBE > MooreaSBE16plusV2 6158
2013-10-18 11:50:57CRIOBE > TiahuraCRIOBE > MooreaSBE26 houlographe 1280
2013-10-22 07:59:34CRIOBE > MooreaCRIOBE > TiahuraFLNTUS fluo turb 1948
2013-10-22 09:19:39CRIOBE > MooreaCRIOBE > TiahuraSBE16plusV2 6167
2013-10-22 09:20:39CRIOBE > MooreaCRIOBE > TiahuraSBE18 pH 0696
2013-10-22 09:22:46CRIOBE > MooreaCRIOBE > TiahuraSBE43 Oxygen 1868
2013-10-22 09:23:18CRIOBE > MooreaCRIOBE > TiahuraSBE5P Pompe 4997
2013-11-26 08:59:43CRIOBE > MooreaCRIOBE > TiahuraSBE26 houlographe 1303
2014-02-20 11:29:52CRIOBE > MooreaCRIOBE > TiahuraSBE18 pH 0784
2014-02-20 11:31:56CRIOBE > TiahuraCRIOBE > MooreaSBE18 pH 0696
2014-02-20 11:34:08CRIOBE > MooreaCRIOBE > TiahuraSBE43 Oxygen 1408
2014-02-20 11:35:05CRIOBE > TiahuraCRIOBE > MooreaSBE43 Oxygen 1868
2014-02-20 11:35:50CRIOBE > MooreaCRIOBE > TiahuraSBE5P Pompe 6097
2014-02-20 11:37:07CRIOBE > TiahuraCRIOBE > MooreaSBE5P Pompe 4997
2014-07-08 22:45:42CRIOBE > TiahuraCRIOBE > MooreaFLNTUS fluo turb 1948
2014-07-08 22:48:07CRIOBE > TiahuraCRIOBE > MooreaSBE16plusV2 6167
2014-07-08 22:49:33CRIOBE > TiahuraCRIOBE > MooreaSBE18 pH 0784
2014-07-08 22:51:03CRIOBE > TiahuraCRIOBE > MooreaSBE43 Oxygen 1408
2014-07-08 22:51:37CRIOBE > TiahuraCRIOBE > MooreaSBE5P Pompe 6097
2014-08-11 23:09:03CRIOBE > MooreaCRIOBE > TiahuraSBE18 pH 0656
2014-08-11 23:10:24CRIOBE > MooreaCRIOBE > TiahuraSBE43 Oxygen 1610
2014-08-11 23:10:57CRIOBE > MooreaCRIOBE > TiahuraSBE16plusV2 6595
2014-08-12 00:32:42CRIOBE > TiahuraCRIOBE > MooreaSBE18 pH 0656
2014-08-12 00:39:00CRIOBE > MooreaCRIOBE > TiahuraSBE18 pH 0683
2014-08-14 23:24:56CRIOBE > MooreaCRIOBE > TiahuraSBE5P Pompe 6097
2015-03-09 22:25:28CRIOBE > TiahuraCRIOBE > MooreaSBE18 pH 0683
2015-03-09 22:26:22CRIOBE > TiahuraCRIOBE > MooreaSBE43 Oxygen 1610
2015-03-12 20:59:59CRIOBE > MooreaCRIOBE > TiahuraSBE18 pH 0696
2015-03-12 21:01:12CRIOBE > MooreaCRIOBE > TiahuraSBE43 Oxygen 1409
2015-03-12 21:12:15CRIOBE > MooreaCRIOBE > TiahuraFLNTUS fluo turb 1936
2015-09-10 02:22:52CRIOBE > MooreaCRIOBE > TiahuraSBE26 houlographe 1190
2015-09-17 03:27:50CRIOBE > TiahuraCRIOBE > MooreaSBE26 houlographe 1303
2015-09-17 03:28:11CRIOBE > TiahuraCRIOBE > MooreaFLNTUS fluo turb 1936
2015-09-17 03:28:26CRIOBE > TiahuraCRIOBE > MooreaSBE18 pH 0696
2015-09-17 03:28:38CRIOBE > TiahuraCRIOBE > MooreaSBE5P Pompe 6097
2015-09-17 03:28:53CRIOBE > TiahuraCRIOBE > MooreaSBE16plusV2 6595
2015-09-17 03:29:09CRIOBE > TiahuraCRIOBE > MooreaSBE43 Oxygen 1409
2015-09-25 20:51:45Sea BirdCRIOBE > TiahuraSBE18 pH 0655
2015-09-25 20:52:27CRIOBE > MooreaCRIOBE > TiahuraSBE43 Oxygen 1610
2015-09-25 20:54:02CRIOBE > MooreaCRIOBE > TiahuraSBE16plusV2 6595
2015-09-25 23:52:11CRIOBE > MooreaCRIOBE > TiahuraFLNTUS fluo turb 1936
2015-09-29 23:53:49CRIOBE > MooreaCRIOBE > TiahuraSBE5P Pompe 6097
2015-10-06 03:09:27CRIOBE > MooreaCRIOBE > TiahuraFLNTUS fluo turb 1948
2015-10-06 03:38:15CRIOBE > TiahuraCRIOBE > MooreaFLNTUS fluo turb 1936
2015-10-06 03:40:03CRIOBE > TiahuraCRIOBE > MooreaSBE16plusV2 6595
2015-10-06 03:49:57CRIOBE > MooreaCRIOBE > TiahuraSBE16plusV2 6051
2016-02-19 03:07:38CRIOBE > TiahuraCRIOBE > Moorea > CRIOBEFLNTUS fluo turb 1948
2016-02-19 03:07:47CRIOBE > TiahuraCRIOBE > Moorea > CRIOBESBE16plusV2 6051
2016-02-19 03:08:00CRIOBE > TiahuraCRIOBE > Moorea > CRIOBESBE18 pH 0655
2016-02-19 03:08:09CRIOBE > TiahuraCRIOBE > Moorea > CRIOBESBE43 Oxygen 1610
2016-02-19 03:08:17CRIOBE > TiahuraCRIOBE > Moorea > CRIOBESBE5P Pompe 6097
2016-07-13 22:33:53CRIOBE > Moorea > CRIOBECRIOBE > TiahuraSBE43 Oxygen 1408
2016-07-13 22:34:07CRIOBE > MooreaCRIOBE > TiahuraSBE18 pH 0664
2016-07-13 22:35:14CRIOBE > Moorea > CRIOBECRIOBE > TiahuraSBE16plusV2 6051
2016-07-13 22:36:18CRIOBE > Moorea > CRIOBECRIOBE > TiahuraSBE5P Pompe 6097
2016-07-13 22:37:01CRIOBE > Moorea > CRIOBECRIOBE > TiahuraFLNTUS fluo turb 1948
2016-11-10 02:50:34CRIOBE > Tiahura (9)CRIOBE > Moorea > CRIOBE (33)SBE26 houlographe 1190
2016-11-29 00:13:54CRIOBE > Tiahura (9)CRIOBE > Moorea > CRIOBE (33)SBE16plusV2 6051
2016-11-29 00:59:06CRIOBE > Tiahura (9)CRIOBE > Moorea > CRIOBE (33)FLNTUS fluo turb 1948
2016-11-29 00:59:18CRIOBE > Tiahura (9)CRIOBE > Moorea > CRIOBE (33)SBE18 pH 0664
2016-11-29 00:59:31CRIOBE > Tiahura (9)CRIOBE > Moorea > CRIOBE (33)SBE5P Pompe 6097
2016-11-29 01:00:00CRIOBE > Tiahura (9)CRIOBE > Moorea > CRIOBE (33)SBE43 Oxygen 1408
2017-05-24 03:47:10CRIOBE > Moorea > CRIOBE (33)CRIOBE > Tiahura (9)SBE26 houlographe 1186
2018-07-17 20:06:27CRIOBE (2)CRIOBE > Tiahura (9)wave Gauge Blue 17-09-22-001
2019-02-05 20:21:56CRIOBE > Tiahura (9)CRIOBE > Moorea > CRIOBE (33)SBE26 houlographe 1186
2019-02-07 00:35:39CRIOBE > Tiahura (9)CRIOBE > Moorea > Moorea Pointe Sud (32)wave Gauge Blue 17-09-22-001
2019-02-08 01:05:33CRIOBE > Moorea > CRIOBE (33)CRIOBE > Tiahura (9)wave Gauge Blue 17-09-22-002
2019-08-06 02:16:14CRIOBE > Tiahura (9)CRIOBE > Moorea > CRIOBE (33)wave Gauge Blue 17-09-22-002
2019-08-07 01:26:55CRIOBE > Moorea > CRIOBE (33)CRIOBE > Tiahura (9)SBE56Temp 1612
2019-08-07 01:29:40CRIOBE (2)CRIOBE > Tiahura (9)wave Gauge Blue 17-09-22-001
2019-08-27 20:25:07CRIOBE > Moorea > CRIOBE (33)CRIOBE > Tiahura (9)FLNTUSB fluo turb autonomous 4912
2019-08-27 20:25:28CRIOBE > Moorea > CRIOBE (33)CRIOBE > Tiahura (9)SBE37SMP 16670

blog mission
Mission Avril 2018
Cecile Vendredi avril 6, 2018

Changement des thermographes de la pente externe
P3 : ONSET n°9937385
P8 : ONSET n°20200051
P14 : ONSET n°1294065
P25 : ONSET n°20200050
P35 : ONSET n°20200054
P50 : ONSET n°20200048

<more>

 

Agenda des Missions

1)  2019-10-21
Tonga et Samoa
2)  2019-11-26
Mangareva